createdAt,value
2023-05-12T00:02:03.433Z,52.78
2023-05-12T00:05:05.793Z,52.97
2023-05-12T00:08:08.043Z,53.31
2023-05-12T00:11:10.113Z,53.78
2023-05-12T00:14:11.896Z,53.88
2023-05-12T00:17:13.971Z,53.70
2023-05-12T00:20:15.930Z,53.96
2023-05-12T00:23:18.102Z,53.52
2023-05-12T00:26:20.033Z,53.72
2023-05-12T00:29:22.799Z,54.52
2023-05-12T00:32:25.754Z,54.90
2023-05-12T00:35:27.996Z,54.82
2023-05-12T00:38:29.923Z,54.43
2023-05-12T00:41:31.808Z,53.50
2023-05-12T00:44:33.897Z,54.90
2023-05-12T00:47:45.083Z,55.04
2023-05-12T00:50:47.451Z,55.46
2023-05-12T00:53:50.671Z,55.67
2023-05-12T00:56:53.031Z,56.24
2023-05-12T00:59:56.584Z,56.82
2023-05-12T01:02:58.934Z,57.03
2023-05-12T01:06:16.634Z,57.67
2023-05-12T01:09:19.220Z,58.58
2023-05-12T01:12:21.570Z,58.84
2023-05-12T01:15:23.636Z,59.19
2023-05-12T01:18:28.625Z,59.30
2023-05-12T01:21:31.825Z,59.31
2023-05-12T01:24:38.845Z,59.73
2023-05-12T01:27:42.099Z,60.69
2023-05-12T01:30:45.044Z,60.72
2023-05-12T01:33:48.492Z,60.88
2023-05-12T01:36:50.507Z,60.81
2023-05-12T01:39:53.980Z,61.03
2023-05-12T01:42:56.551Z,61.14
2023-05-12T01:45:59.264Z,60.88
2023-05-12T01:49:01.549Z,60.21
2023-05-12T01:52:04.008Z,59.76
2023-05-12T01:55:07.307Z,60.21
2023-05-12T01:58:15.017Z,60.09
2023-05-12T02:01:16.919Z,59.73
2023-05-12T02:04:18.870Z,59.91
2023-05-12T02:07:22.367Z,59.28
2023-05-12T02:10:24.336Z,59.17
2023-05-12T02:13:26.415Z,59.03
2023-05-12T02:16:28.324Z,59.71
2023-05-12T02:19:30.305Z,59.78
2023-05-12T02:22:33.846Z,59.57
2023-05-12T02:25:36.125Z,59.45
2023-05-12T02:28:38.108Z,59.24
2023-05-12T02:31:40.360Z,59.18
2023-05-12T02:34:52.198Z,58.93
2023-05-12T02:37:54.075Z,59.23
2023-05-12T02:40:56.023Z,59.86
2023-05-12T02:43:58.607Z,59.28
2023-05-12T02:47:00.690Z,58.58
2023-05-12T02:50:02.626Z,58.87
2023-05-12T02:53:05.943Z,58.84
2023-05-12T02:56:08.081Z,58.67
2023-05-12T02:59:09.998Z,58.64
2023-05-12T03:02:12.071Z,59.24
2023-05-12T03:05:14.543Z,59.70
2023-05-12T03:08:16.755Z,59.41
2023-05-12T03:11:18.678Z,59.73
2023-05-12T03:14:20.628Z,60.10
2023-05-12T03:17:22.883Z,59.79
2023-05-12T03:20:25.663Z,59.00
2023-05-12T03:23:27.574Z,58.83
2023-05-12T03:26:30.645Z,58.08
2023-05-12T03:29:32.581Z,58.12
2023-05-12T03:32:34.549Z,57.99
2023-05-12T03:35:36.471Z,58.32
2023-05-12T03:38:38.652Z,57.38
2023-05-12T03:41:41.098Z,56.56
2023-05-12T03:44:43.879Z,56.40
2023-05-12T03:47:46.186Z,56.27
2023-05-12T03:50:48.167Z,55.94
2023-05-12T03:53:50.516Z,55.99
2023-05-12T03:56:53.642Z,55.85
2023-05-12T03:59:55.596Z,55.58
2023-05-12T04:02:57.767Z,54.69
2023-05-12T04:06:03.453Z,54.29
2023-05-12T04:09:05.349Z,54.34
2023-05-12T04:12:07.410Z,54.30
2023-05-12T04:15:09.616Z,53.70
2023-05-12T04:18:11.663Z,53.84
2023-05-12T04:21:14.608Z,53.76
2023-05-12T04:24:16.620Z,52.82
2023-05-12T04:27:18.617Z,52.85
2023-05-12T04:30:21.060Z,53.01
2023-05-12T04:33:24.608Z,53.27
2023-05-12T04:36:27.054Z,52.70
2023-05-12T04:39:29.619Z,52.56
2023-05-12T04:42:32.399Z,52.92
2023-05-12T04:45:34.703Z,52.18
2023-05-12T04:48:41.925Z,52.08
2023-05-12T04:51:44.628Z,51.36
2023-05-12T04:54:46.773Z,51.50
2023-05-12T04:57:48.755Z,51.54
2023-05-12T05:00:50.808Z,51.42
2023-05-12T05:03:52.957Z,51.42
2023-05-12T05:06:58.455Z,51.79
2023-05-12T05:13:18.346Z,51.70
2023-05-12T05:16:20.416Z,51.38
2023-05-12T05:19:35.250Z,51.31
2023-05-12T05:22:48.622Z,51.30
2023-05-12T05:25:51.602Z,51.36
2023-05-12T05:28:55.237Z,50.99
2023-05-12T05:31:58.597Z,51.62
2023-05-12T05:35:00.595Z,52.18
2023-05-12T05:38:02.958Z,51.13
2023-05-12T05:41:06.816Z,51.91
2023-05-12T05:44:09.183Z,50.96
2023-05-12T05:47:11.261Z,51.36
2023-05-12T05:50:13.801Z,50.96
2023-05-12T05:53:20.509Z,51.35
2023-05-12T05:56:23.133Z,50.65
2023-05-12T05:59:25.480Z,50.94
2023-05-12T06:02:28.129Z,51.41
2023-05-12T06:05:30.132Z,50.46
2023-05-12T06:08:32.099Z,51.12
2023-05-12T06:11:34.012Z,50.39
2023-05-12T06:14:35.851Z,50.15
2023-05-12T06:17:38.397Z,51.06
2023-05-12T06:20:41.131Z,49.71
2023-05-12T06:23:43.077Z,49.29
2023-05-12T06:26:44.909Z,48.41
2023-05-12T06:29:46.842Z,47.62
2023-05-12T06:32:48.817Z,47.82
2023-05-12T06:35:50.802Z,47.91
2023-05-12T06:38:53.967Z,47.27
2023-05-12T06:41:55.857Z,47.02
2023-05-12T06:44:57.785Z,47.19
2023-05-12T06:48:00.047Z,47.57
2023-05-12T06:51:02.688Z,46.73
2023-05-12T06:54:04.683Z,47.18
2023-05-12T06:57:06.570Z,47.34
2023-05-12T07:00:09.740Z,47.28
2023-05-12T07:03:11.729Z,45.63
2023-05-12T07:06:14.048Z,46.67
2023-05-12T07:09:18.761Z,47.04
2023-05-12T07:12:52.369Z,46.40
2023-05-12T07:15:54.316Z,45.26
2023-05-12T07:18:56.460Z,45.05
2023-05-12T07:21:58.836Z,44.94
2023-05-12T07:25:00.842Z,44.77
2023-05-12T07:28:03.064Z,44.55
2023-05-12T07:31:07.333Z,45.01
2023-05-12T07:34:09.333Z,43.40
2023-05-12T07:37:11.197Z,44.75
2023-05-12T07:40:13.225Z,44.42
2023-05-12T07:43:15.085Z,43.15
2023-05-12T07:46:16.945Z,44.23
2023-05-12T07:49:18.802Z,44.20
2023-05-12T07:52:20.748Z,43.62
2023-05-12T07:55:23.236Z,43.87
2023-05-12T07:58:25.357Z,43.65
2023-05-12T08:01:27.494Z,43.71
2023-05-12T08:04:29.522Z,42.65
2023-05-12T08:07:32.023Z,43.37
2023-05-12T08:10:33.957Z,42.09
2023-05-12T08:13:38.868Z,41.68
2023-05-12T08:16:41.085Z,41.07
2023-05-12T08:19:43.061Z,41.42
2023-05-12T08:22:44.927Z,40.42
2023-05-12T08:25:48.540Z,39.93
2023-05-12T08:28:50.441Z,40.14
2023-05-12T08:31:52.375Z,40.87
2023-05-12T08:34:54.686Z,40.86
2023-05-12T08:37:57.540Z,38.95
2023-05-12T08:41:13.001Z,39.10
2023-05-12T08:44:15.896Z,39.73
2023-05-12T08:47:20.418Z,37.96
2023-05-12T08:50:23.392Z,38.53
2023-05-12T08:53:27.895Z,37.66
2023-05-12T08:59:37.913Z,38.51
2023-05-12T09:02:52.050Z,38.69
2023-05-12T09:05:57.603Z,39.14
2023-05-12T09:09:00.015Z,40.08
2023-05-12T09:12:03.370Z,38.07
2023-05-12T09:15:10.540Z,38.63
2023-05-12T09:18:12.433Z,39.25
2023-05-12T09:21:14.416Z,39.50
2023-05-12T09:24:17.112Z,39.31
2023-05-12T09:35:22.736Z,40.13
2023-05-12T09:38:24.739Z,39.55
2023-05-12T09:41:26.652Z,39.20
2023-05-12T09:44:29.936Z,39.48
2023-05-12T09:47:37.574Z,39.43
2023-05-12T09:50:51.442Z,37.96
2023-05-12T09:53:53.588Z,38.78
2023-05-12T09:57:02.451Z,38.21
2023-05-12T10:00:16.956Z,40.21
2023-05-12T10:03:25.689Z,41.18
2023-05-12T10:07:12.027Z,40.52
2023-05-12T10:11:13.646Z,41.58
2023-05-12T10:15:15.333Z,40.06
2023-05-12T10:18:37.517Z,39.34
2023-05-12T10:21:42.863Z,39.64
2023-05-12T10:24:45.736Z,40.16
2023-05-12T10:27:49.383Z,38.52
2023-05-12T10:30:52.960Z,39.68
2023-05-12T10:34:02.782Z,39.83
2023-05-12T10:37:09.165Z,39.22
2023-05-12T10:40:11.391Z,39.59
2023-05-12T10:43:24.342Z,38.74
2023-05-12T10:46:27.602Z,38.30
2023-05-12T10:49:34.827Z,38.61
2023-05-12T10:52:36.622Z,39.14
2023-05-12T10:55:46.455Z,39.11
2023-05-12T10:59:13.583Z,38.92
2023-05-12T11:02:18.534Z,39.24
2023-05-12T11:05:21.987Z,39.21
2023-05-12T11:08:24.951Z,40.29
2023-05-12T11:11:29.407Z,39.58
2023-05-12T11:14:32.205Z,39.50
2023-05-12T11:17:37.722Z,39.69
2023-05-12T11:20:39.689Z,39.20
2023-05-12T11:23:41.740Z,39.54
2023-05-12T11:26:43.666Z,40.76
2023-05-12T11:29:56.123Z,41.71
2023-05-12T11:33:02.460Z,40.92
2023-05-12T11:36:05.587Z,42.65
2023-05-12T11:39:13.877Z,43.17
2023-05-12T11:42:17.778Z,44.00
2023-05-12T11:45:25.992Z,43.68
2023-05-12T11:48:37.511Z,44.96
2023-05-12T11:51:43.264Z,46.74
2023-05-12T11:55:06.782Z,47.21
2023-05-12T11:58:08.752Z,46.97
2023-05-12T12:01:13.460Z,49.25
2023-05-12T12:04:15.751Z,48.79
2023-05-12T12:07:32.181Z,48.91
2023-05-12T12:10:34.141Z,46.89
2023-05-12T12:13:36.123Z,46.79
2023-05-12T12:16:38.205Z,44.37
2023-05-12T12:19:40.294Z,44.63
2023-05-12T12:22:42.236Z,46.77
2023-05-12T12:25:44.126Z,47.09
2023-05-12T12:28:47.745Z,47.68
2023-05-12T12:31:50.905Z,49.62
2023-05-12T12:34:53.471Z,50.68
2023-05-12T12:37:55.517Z,52.75
2023-05-12T12:40:57.390Z,54.42
2023-05-12T12:43:59.552Z,56.19
2023-05-12T12:47:01.523Z,56.15
2023-05-12T12:50:04.034Z,57.46
2023-05-12T12:53:06.335Z,58.76
2023-05-12T12:56:08.286Z,58.84
2023-05-12T12:59:10.416Z,59.19
2023-05-12T13:02:12.534Z,59.48
2023-05-12T13:05:14.369Z,58.48
2023-05-12T13:08:17.628Z,58.07
2023-05-12T13:11:19.539Z,57.88
2023-05-12T13:14:21.653Z,57.36
2023-05-12T13:17:23.574Z,54.77
2023-05-12T13:20:25.523Z,54.66
2023-05-12T13:23:27.446Z,54.36
2023-05-12T13:26:29.324Z,59.36
2023-05-12T13:29:31.309Z,56.23
2023-05-12T13:32:34.647Z,56.21
2023-05-12T13:35:36.563Z,58.51
2023-05-12T13:38:38.451Z,57.38
2023-05-12T13:41:40.372Z,58.50
2023-05-12T13:44:42.478Z,59.94
2023-05-12T13:47:44.397Z,58.79
2023-05-12T13:50:46.402Z,58.09
2023-05-12T13:53:48.246Z,58.72
2023-05-12T13:56:50.049Z,58.31
2023-05-12T13:59:52.229Z,58.82
2023-05-12T14:02:54.378Z,58.79
2023-05-12T14:05:56.267Z,58.77
2023-05-12T14:09:06.102Z,59.01
2023-05-12T14:12:08.630Z,59.78
2023-05-12T14:15:29.062Z,59.75
2023-05-12T14:18:33.600Z,59.54
2023-05-12T14:21:35.910Z,58.80
2023-05-12T14:24:37.787Z,59.14
2023-05-12T14:27:39.841Z,58.64
2023-05-12T14:30:43.376Z,57.60
2023-05-12T14:33:45.489Z,58.29
2023-05-12T14:36:47.393Z,57.16
2023-05-12T14:39:49.211Z,57.77
2023-05-12T14:42:51.278Z,56.33
2023-05-12T14:45:54.683Z,56.46
2023-05-12T14:48:56.852Z,58.20
2023-05-12T14:51:59.158Z,57.93
2023-05-12T14:55:01.026Z,58.90
2023-05-12T14:58:02.881Z,59.15
2023-05-12T15:01:06.346Z,59.52
2023-05-12T15:04:09.933Z,58.79
2023-05-12T15:07:11.895Z,58.82
2023-05-12T15:43:54.807Z,58.58
2023-05-12T15:46:57.080Z,59.61
2023-05-12T15:49:59.140Z,59.31
2023-05-12T15:53:01.009Z,55.15
2023-05-12T15:56:04.413Z,57.55
2023-05-12T15:59:06.885Z,58.58
2023-05-12T16:02:08.957Z,58.10
2023-05-12T16:05:12.077Z,58.30
2023-05-12T16:08:14.342Z,58.25
2023-05-12T16:11:16.341Z,58.86
2023-05-12T16:14:18.787Z,58.19
2023-05-12T16:17:22.267Z,58.36
2023-05-12T16:20:24.156Z,59.40
2023-05-12T16:23:26.357Z,60.77
2023-05-12T16:26:28.209Z,62.10
2023-05-12T16:29:30.038Z,61.73
2023-05-12T16:32:32.248Z,60.52
2023-05-12T16:35:34.490Z,60.83
2023-05-12T16:38:36.342Z,61.98
2023-05-12T16:41:38.522Z,61.18
2023-05-12T16:44:40.383Z,61.67
2023-05-12T16:47:45.568Z,61.84
2023-05-12T16:50:47.512Z,61.46
2023-05-12T16:53:49.448Z,61.81
2023-05-12T16:56:51.412Z,63.52
2023-05-12T16:59:53.288Z,62.21
2023-05-12T17:02:55.359Z,60.85
2023-05-12T17:05:57.742Z,63.52
2023-05-12T17:08:59.667Z,64.06
2023-05-12T17:12:01.623Z,64.95
2023-05-12T17:15:07.871Z,65.27
2023-05-12T17:18:10.336Z,64.23
2023-05-12T17:21:12.366Z,65.54
2023-05-12T17:24:14.519Z,65.81
2023-05-12T17:27:16.454Z,66.00
2023-05-12T17:30:18.710Z,66.01
2023-05-12T17:33:20.633Z,66.46
2023-05-12T17:36:22.547Z,66.50
2023-05-12T17:39:24.443Z,66.04
2023-05-12T17:42:29.940Z,67.31
2023-05-12T17:45:31.786Z,67.76
2023-05-12T17:48:33.736Z,67.25
2023-05-12T17:51:35.674Z,69.94
2023-05-12T17:54:37.588Z,69.53
2023-05-12T17:57:39.507Z,69.57
2023-05-12T18:00:41.621Z,69.17
2023-05-12T18:03:43.945Z,67.75
2023-05-12T18:06:50.111Z,64.10
2023-05-12T18:09:52.013Z,65.98
2023-05-12T18:12:55.402Z,66.82
2023-05-12T18:15:57.464Z,66.99
2023-05-12T18:18:59.481Z,63.17
2023-05-12T18:22:01.417Z,60.09
2023-05-12T18:25:03.410Z,58.63
2023-05-12T18:28:06.746Z,56.16
2023-05-12T18:31:16.069Z,55.11
2023-05-12T18:34:18.346Z,55.41
2023-05-12T18:37:20.203Z,54.11
2023-05-12T18:40:22.116Z,55.33
2023-05-12T18:43:24.015Z,54.46
2023-05-12T18:46:25.915Z,54.86
2023-05-12T18:49:27.802Z,55.30
2023-05-12T18:52:29.699Z,55.38
2023-05-12T18:55:31.591Z,54.41
2023-05-12T18:58:33.530Z,55.56
2023-05-12T19:01:35.595Z,55.87
2023-05-12T19:04:37.733Z,56.81
2023-05-12T19:07:39.635Z,56.88
2023-05-12T19:10:41.595Z,56.22
2023-05-12T19:13:45.354Z,56.82
2023-05-12T19:16:47.256Z,56.39
2023-05-12T19:19:50.675Z,55.57
2023-05-12T19:22:52.593Z,55.64
2023-05-12T19:25:54.742Z,55.72
2023-05-12T19:28:56.588Z,55.43
2023-05-12T19:31:58.622Z,55.48
2023-05-12T19:35:01.070Z,54.95
2023-05-12T19:38:03.019Z,54.85
2023-05-12T19:41:04.820Z,54.61
2023-05-12T19:44:06.708Z,54.63
2023-05-12T19:47:09.549Z,55.12
2023-05-12T19:50:11.578Z,54.83
2023-05-12T19:53:13.514Z,54.79
2023-05-12T19:56:15.459Z,54.42
2023-05-12T19:59:18.707Z,55.00
2023-05-12T20:02:20.790Z,54.62
2023-05-12T20:05:22.898Z,55.09
2023-05-12T20:08:24.862Z,54.64
2023-05-12T20:11:27.195Z,54.58
2023-05-12T20:14:29.083Z,54.81
2023-05-12T20:17:31.105Z,55.16
2023-05-12T20:20:32.969Z,55.34
2023-05-12T20:23:34.863Z,55.22
2023-05-12T20:26:36.926Z,54.83
2023-05-12T20:29:38.888Z,54.96
2023-05-12T20:32:41.050Z,54.94
2023-05-12T20:35:42.978Z,55.16
2023-05-12T20:38:45.001Z,55.27
2023-05-12T20:41:46.892Z,55.26
2023-05-12T20:44:48.756Z,55.24
2023-05-12T20:47:50.696Z,56.14
2023-05-12T20:50:53.086Z,56.02
2023-05-12T20:53:55.753Z,55.20
2023-05-12T20:56:57.805Z,55.50
2023-05-12T20:59:59.603Z,55.54
2023-05-12T21:03:03.002Z,55.57
2023-05-12T21:06:05.618Z,55.51
2023-05-12T21:09:07.508Z,56.00
2023-05-12T21:12:09.685Z,55.73
2023-05-12T21:15:11.826Z,55.92
2023-05-12T21:18:13.935Z,55.76
2023-05-12T21:21:16.105Z,55.70
2023-05-12T21:24:17.974Z,55.22
2023-05-12T21:27:19.819Z,55.57
2023-05-12T21:30:21.846Z,55.59
2023-05-12T21:33:23.928Z,55.83
2023-05-12T21:36:25.781Z,56.35
2023-05-12T21:39:27.978Z,56.24
2023-05-12T21:42:30.063Z,55.95
2023-05-12T21:45:32.778Z,56.31
2023-05-12T21:48:34.580Z,56.30
2023-05-12T21:51:36.379Z,56.79
2023-05-12T21:54:38.599Z,56.54
2023-05-12T21:57:41.128Z,56.94
2023-05-12T22:00:43.260Z,56.58
2023-05-12T22:03:45.314Z,56.23
2023-05-12T22:06:47.683Z,56.44
2023-05-12T22:09:49.589Z,56.62
2023-05-12T22:12:51.615Z,56.59
2023-05-12T22:15:53.649Z,57.34
2023-05-12T22:18:55.805Z,57.75
2023-05-12T22:21:58.279Z,58.05
2023-05-12T22:25:00.138Z,58.12
2023-05-12T22:28:02.040Z,58.93
2023-05-12T22:31:04.019Z,59.46
2023-05-12T22:34:05.931Z,59.50
2023-05-12T22:37:07.813Z,59.54
2023-05-12T22:43:47.895Z,60.05
2023-05-12T22:46:49.957Z,60.45
2023-05-12T22:49:51.863Z,59.93
2023-05-12T22:52:57.473Z,60.63
2023-05-12T22:55:59.397Z,60.03
2023-05-12T22:59:01.224Z,60.74
2023-05-12T23:02:03.073Z,61.06
2023-05-12T23:05:05.339Z,60.45
2023-05-12T23:08:07.231Z,61.03
2023-05-12T23:11:09.724Z,60.98
2023-05-12T23:14:11.669Z,61.07
2023-05-12T23:17:13.539Z,61.16
2023-05-12T23:20:15.526Z,61.06
2023-05-12T23:23:17.566Z,61.21
2023-05-12T23:26:19.820Z,61.53
2023-05-12T23:29:21.719Z,61.00
2023-05-12T23:32:23.745Z,60.89
2023-05-12T23:35:26.267Z,61.41
2023-05-12T23:38:28.220Z,61.51
2023-05-12T23:41:31.843Z,61.62
2023-05-12T23:44:42.434Z,62.19
2023-05-12T23:47:44.526Z,61.99
2023-05-12T23:50:46.404Z,62.14
2023-05-12T23:53:48.356Z,62.23
2023-05-12T23:56:50.158Z,62.37
2023-05-12T23:59:52.583Z,62.15
